sensor_id;sensor_type;location;lat;lon;timestamp;pressure;altitude;pressure_sealevel;temperature;humidity
59873;BME280;50750;51.636;4.948;2023-05-03T00:00:58;103066.55;;;17.16;58.03
59873;BME280;50750;51.636;4.948;2023-05-03T00:03:27;103073.11;;;17.16;57.87
59873;BME280;50750;51.636;4.948;2023-05-03T00:05:54;103071.18;;;17.15;57.83
59873;BME280;50750;51.636;4.948;2023-05-03T00:08:20;103072.98;;;17.15;57.80
59873;BME280;50750;51.636;4.948;2023-05-03T00:10:47;103077.05;;;17.14;57.94
59873;BME280;50750;51.636;4.948;2023-05-03T00:13:14;103074.92;;;17.14;57.96
59873;BME280;50750;51.636;4.948;2023-05-03T00:15:40;103074.58;;;17.13;57.84
59873;BME280;50750;51.636;4.948;2023-05-03T00:18:07;103076.55;;;17.13;57.87
59873;BME280;50750;51.636;4.948;2023-05-03T00:20:33;103076.57;;;17.12;57.79
59873;BME280;50750;51.636;4.948;2023-05-03T00:23:00;103075.70;;;17.11;57.79
59873;BME280;50750;51.636;4.948;2023-05-03T00:25:27;103070.20;;;17.11;57.72
59873;BME280;50750;51.636;4.948;2023-05-03T00:27:53;103070.75;;;17.10;57.81
59873;BME280;50750;51.636;4.948;2023-05-03T00:30:20;103069.01;;;17.10;57.64
59873;BME280;50750;51.636;4.948;2023-05-03T00:32:46;103070.61;;;17.09;57.73
59873;BME280;50750;51.636;4.948;2023-05-03T00:35:13;103069.92;;;17.08;57.71
59873;BME280;50750;51.636;4.948;2023-05-03T00:37:40;103067.45;;;17.08;57.78
59873;BME280;50750;51.636;4.948;2023-05-03T00:40:07;103064.98;;;17.07;57.78
59873;BME280;50750;51.636;4.948;2023-05-03T00:42:35;103062.70;;;17.07;57.73
59873;BME280;50750;51.636;4.948;2023-05-03T00:45:02;103059.70;;;17.06;57.83
59873;BME280;50750;51.636;4.948;2023-05-03T00:47:31;103058.10;;;17.06;57.73
59873;BME280;50750;51.636;4.948;2023-05-03T00:49:59;103051.39;;;17.06;57.67
59873;BME280;50750;51.636;4.948;2023-05-03T00:52:26;103051.05;;;17.05;57.80
59873;BME280;50750;51.636;4.948;2023-05-03T00:54:53;103050.17;;;17.05;57.82
59873;BME280;50750;51.636;4.948;2023-05-03T00:57:20;103054.10;;;17.04;57.80
59873;BME280;50750;51.636;4.948;2023-05-03T00:59:48;103058.69;;;17.04;57.82
59873;BME280;50750;51.636;4.948;2023-05-03T01:02:15;103060.47;;;17.04;57.75
59873;BME280;50750;51.636;4.948;2023-05-03T01:04:42;103058.36;;;17.03;57.73
59873;BME280;50750;51.636;4.948;2023-05-03T01:07:32;103062.96;;;17.03;57.69
59873;BME280;50750;51.636;4.948;2023-05-03T01:10:23;103060.50;;;17.02;57.58
59873;BME280;50750;51.636;4.948;2023-05-03T01:15:56;103057.52;;;17.01;57.79
59873;BME280;50750;51.636;4.948;2023-05-03T01:18:29;103058.06;;;17.00;57.77
59873;BME280;50750;51.636;4.948;2023-05-03T01:20:59;103060.39;;;16.99;57.68
59873;BME280;50750;51.636;4.948;2023-05-03T01:23:45;103062.70;;;16.99;57.72
59873;BME280;50750;51.636;4.948;2023-05-03T01:26:24;103064.48;;;16.98;57.65
59873;BME280;50750;51.636;4.948;2023-05-03T01:28:51;103061.30;;;16.97;57.67
59873;BME280;50750;51.636;4.948;2023-05-03T01:31:24;103062.92;;;16.97;57.57
59873;BME280;50750;51.636;4.948;2023-05-03T01:34:13;103061.18;;;16.95;57.71
59873;BME280;50750;51.636;4.948;2023-05-03T01:36:43;103063.67;;;16.95;57.67
59873;BME280;50750;51.636;4.948;2023-05-03T01:39:18;103062.61;;;16.94;57.69
59873;BME280;50750;51.636;4.948;2023-05-03T01:41:49;103055.22;;;16.93;57.66
59873;BME280;50750;51.636;4.948;2023-05-03T01:44:17;103056.98;;;16.93;57.55
59873;BME280;50750;51.636;4.948;2023-05-03T01:46:45;103057.86;;;16.93;57.62
59873;BME280;50750;51.636;4.948;2023-05-03T01:49:12;103061.27;;;16.91;57.69
59873;BME280;50750;51.636;4.948;2023-05-03T01:51:38;103065.67;;;16.91;57.72
59873;BME280;50750;51.636;4.948;2023-05-03T01:54:05;103065.86;;;16.91;57.74
59873;BME280;50750;51.636;4.948;2023-05-03T01:56:34;103060.39;;;16.91;57.58
59873;BME280;50750;51.636;4.948;2023-05-03T01:59:02;103061.11;;;16.90;57.50
59873;BME280;50750;51.636;4.948;2023-05-03T02:01:29;103060.93;;;16.90;57.71
59873;BME280;50750;51.636;4.948;2023-05-03T02:03:56;103060.24;;;16.89;57.53
59873;BME280;50750;51.636;4.948;2023-05-03T02:06:23;103055.65;;;16.89;57.70
59873;BME280;50750;51.636;4.948;2023-05-03T02:08:51;103051.59;;;16.88;57.48
59873;BME280;50750;51.636;4.948;2023-05-03T02:11:18;103047.89;;;16.88;57.51
59873;BME280;50750;51.636;4.948;2023-05-03T02:13:49;103042.95;;;16.88;57.46
59873;BME280;50750;51.636;4.948;2023-05-03T02:16:16;103033.59;;;16.87;57.40
59873;BME280;50750;51.636;4.948;2023-05-03T02:18:43;103027.05;;;16.86;57.54
59873;BME280;50750;51.636;4.948;2023-05-03T02:21:10;103017.71;;;16.85;57.50
59873;BME280;50750;51.636;4.948;2023-05-03T02:23:36;103010.98;;;16.85;57.43
59873;BME280;50750;51.636;4.948;2023-05-03T02:26:02;103006.22;;;16.84;57.38
59873;BME280;50750;51.636;4.948;2023-05-03T02:28:29;103000.23;;;16.83;57.60
59873;BME280;50750;51.636;4.948;2023-05-03T02:30:56;102995.80;;;16.83;57.50
59873;BME280;50750;51.636;4.948;2023-05-03T02:33:22;102993.70;;;16.82;57.43
59873;BME280;50750;51.636;4.948;2023-05-03T02:35:48;102991.40;;;16.82;57.46
59873;BME280;50750;51.636;4.948;2023-05-03T02:38:15;102993.38;;;16.81;57.37
59873;BME280;50750;51.636;4.948;2023-05-03T02:40:42;102999.75;;;16.81;57.46
59873;BME280;50750;51.636;4.948;2023-05-03T02:43:09;103007.91;;;16.80;57.44
59873;BME280;50750;51.636;4.948;2023-05-03T02:45:35;103017.81;;;16.80;57.49
59873;BME280;50750;51.636;4.948;2023-05-03T02:48:02;103016.06;;;16.79;57.48
59873;BME280;50750;51.636;4.948;2023-05-03T02:50:29;103019.96;;;16.78;57.45
59873;BME280;50750;51.636;4.948;2023-05-03T02:52:55;103018.73;;;16.78;57.47
59873;BME280;50750;51.636;4.948;2023-05-03T02:55:22;103021.06;;;16.77;57.45
59873;BME280;50750;51.636;4.948;2023-05-03T02:57:48;103016.29;;;16.77;57.24
59873;BME280;50750;51.636;4.948;2023-05-03T03:00:15;103021.41;;;16.76;57.34
59873;BME280;50750;51.636;4.948;2023-05-03T03:02:42;103029.36;;;16.76;57.37
59873;BME280;50750;51.636;4.948;2023-05-03T03:05:08;103033.08;;;16.76;57.32
59873;BME280;50750;51.636;4.948;2023-05-03T03:07:36;103037.52;;;16.75;57.17
59873;BME280;50750;51.636;4.948;2023-05-03T03:10:05;103034.52;;;16.75;57.27
59873;BME280;50750;51.636;4.948;2023-05-03T03:12:34;103025.70;;;16.74;57.21
59873;BME280;50750;51.636;4.948;2023-05-03T03:15:01;103029.05;;;16.74;57.26
59873;BME280;50750;51.636;4.948;2023-05-03T03:17:29;103024.83;;;16.73;57.21
59873;BME280;50750;51.636;4.948;2023-05-03T03:19:56;103019.35;;;16.73;57.38
59873;BME280;50750;51.636;4.948;2023-05-03T03:22:23;103021.48;;;16.72;57.30
59873;BME280;50750;51.636;4.948;2023-05-03T03:24:53;103028.58;;;16.72;57.23
59873;BME280;50750;51.636;4.948;2023-05-03T03:27:19;103022.21;;;16.72;57.21
59873;BME280;50750;51.636;4.948;2023-05-03T03:29:48;103017.79;;;16.71;57.11
59873;BME280;50750;51.636;4.948;2023-05-03T03:32:15;103017.44;;;16.71;57.34
59873;BME280;50750;51.636;4.948;2023-05-03T03:34:41;103024.36;;;16.70;57.30
59873;BME280;50750;51.636;4.948;2023-05-03T03:37:08;103032.16;;;16.69;57.22
59873;BME280;50750;51.636;4.948;2023-05-03T03:39:34;103036.77;;;16.70;57.23
59873;BME280;50750;51.636;4.948;2023-05-03T03:42:02;103034.14;;;16.69;57.30
59873;BME280;50750;51.636;4.948;2023-05-03T03:44:28;103032.35;;;16.68;57.07
59873;BME280;50750;51.636;4.948;2023-05-03T03:46:55;103033.42;;;16.68;57.24
59873;BME280;50750;51.636;4.948;2023-05-03T03:49:22;103040.85;;;16.68;57.37
59873;BME280;50750;51.636;4.948;2023-05-03T03:51:48;103045.30;;;16.67;57.21
59873;BME280;50750;51.636;4.948;2023-05-03T03:54:15;103038.41;;;16.66;57.10
59873;BME280;50750;51.636;4.948;2023-05-03T03:56:41;103039.14;;;16.66;57.08
59873;BME280;50750;51.636;4.948;2023-05-03T03:59:08;103042.50;;;16.65;57.18
59873;BME280;50750;51.636;4.948;2023-05-03T04:01:34;103041.98;;;16.64;57.16
59873;BME280;50750;51.636;4.948;2023-05-03T04:04:01;103043.06;;;16.64;57.17
59873;BME280;50750;51.636;4.948;2023-05-03T04:06:27;103043.24;;;16.64;57.22
59873;BME280;50750;51.636;4.948;2023-05-03T04:08:54;103045.73;;;16.64;57.14
59873;BME280;50750;51.636;4.948;2023-05-03T04:11:21;103051.23;;;16.63;57.18
59873;BME280;50750;51.636;4.948;2023-05-03T04:13:49;103049.98;;;16.62;57.13
59873;BME280;50750;51.636;4.948;2023-05-03T04:16:15;103056.02;;;16.62;57.04
59873;BME280;50750;51.636;4.948;2023-05-03T04:18:42;103056.56;;;16.62;57.21
59873;BME280;50750;51.636;4.948;2023-05-03T04:21:08;103054.80;;;16.61;57.18
59873;BME280;50750;51.636;4.948;2023-05-03T04:23:35;103059.23;;;16.60;57.12
59873;BME280;50750;51.636;4.948;2023-05-03T04:26:02;103064.72;;;16.60;57.14
59873;BME280;50750;51.636;4.948;2023-05-03T04:28:29;103064.55;;;16.59;57.06
59873;BME280;50750;51.636;4.948;2023-05-03T04:30:55;103064.92;;;16.59;56.99
59873;BME280;50750;51.636;4.948;2023-05-03T04:33:24;103070.77;;;16.59;57.14
59873;BME280;50750;51.636;4.948;2023-05-03T04:35:51;103078.55;;;16.58;57.06
59873;BME280;50750;51.636;4.948;2023-05-03T04:38:18;103078.39;;;16.57;57.03
59873;BME280;50750;51.636;4.948;2023-05-03T04:40:45;103080.52;;;16.56;57.04
59873;BME280;50750;51.636;4.948;2023-05-03T04:43:12;103081.95;;;16.56;57.07
59873;BME280;50750;51.636;4.948;2023-05-03T04:45:39;103090.45;;;16.56;57.05
59873;BME280;50750;51.636;4.948;2023-05-03T04:48:06;103091.71;;;16.55;57.04
59873;BME280;50750;51.636;4.948;2023-05-03T04:50:33;103095.61;;;16.55;57.12
59873;BME280;50750;51.636;4.948;2023-05-03T04:53:00;103098.42;;;16.54;57.15
59873;BME280;50750;51.636;4.948;2023-05-03T04:55:27;103094.73;;;16.53;57.18
59873;BME280;50750;51.636;4.948;2023-05-03T04:57:54;103089.98;;;16.53;57.23
59873;BME280;50750;51.636;4.948;2023-05-03T05:00:20;103088.05;;;16.52;57.11
59873;BME280;50750;51.636;4.948;2023-05-03T05:02:48;103084.16;;;16.52;57.05
59873;BME280;50750;51.636;4.948;2023-05-03T05:05:15;103083.10;;;16.52;57.11
59873;BME280;50750;51.636;4.948;2023-05-03T05:07:42;103079.92;;;16.51;57.01
59873;BME280;50750;51.636;4.948;2023-05-03T05:10:09;103078.02;;;16.50;57.20
59873;BME280;50750;51.636;4.948;2023-05-03T05:12:36;103076.95;;;16.50;57.18
59873;BME280;50750;51.636;4.948;2023-05-03T05:15:03;103080.66;;;16.50;56.97
59873;BME280;50750;51.636;4.948;2023-05-03T05:17:29;103073.77;;;16.49;57.09
59873;BME280;50750;51.636;4.948;2023-05-03T05:19:56;103078.38;;;16.49;57.04
59873;BME280;50750;51.636;4.948;2023-05-03T05:22:22;103078.73;;;16.49;57.06
59873;BME280;50750;51.636;4.948;2023-05-03T05:24:49;103081.75;;;16.48;57.08
59873;BME280;50750;51.636;4.948;2023-05-03T05:27:16;103084.77;;;16.48;57.09
59873;BME280;50750;51.636;4.948;2023-05-03T05:29:42;103087.79;;;16.48;57.00
59873;BME280;50750;51.636;4.948;2023-05-03T05:32:08;103092.56;;;16.47;57.14
59873;BME280;50750;51.636;4.948;2023-05-03T05:34:35;103103.00;;;16.47;57.06
59873;BME280;50750;51.636;4.948;2023-05-03T05:37:01;103097.34;;;16.46;57.09
59873;BME280;50750;51.636;4.948;2023-05-03T05:39:30;103095.75;;;16.46;57.18
59873;BME280;50750;51.636;4.948;2023-05-03T05:41:57;103097.70;;;16.46;57.00
59873;BME280;50750;51.636;4.948;2023-05-03T05:44:23;103100.20;;;16.45;57.21
59873;BME280;50750;51.636;4.948;2023-05-03T05:46:50;103098.44;;;16.45;57.15
59873;BME280;50750;51.636;4.948;2023-05-03T05:49:16;103097.58;;;16.44;57.13
59873;BME280;50750;51.636;4.948;2023-05-03T05:51:43;103090.15;;;16.44;57.07
59873;BME280;50750;51.636;4.948;2023-05-03T05:54:10;103091.40;;;16.44;57.10
59873;BME280;50750;51.636;4.948;2023-05-03T05:56:37;103090.69;;;16.43;57.04
59873;BME280;50750;51.636;4.948;2023-05-03T05:59:03;103099.00;;;16.43;57.15
59873;BME280;50750;51.636;4.948;2023-05-03T06:01:31;103096.91;;;16.43;57.21
59873;BME280;50750;51.636;4.948;2023-05-03T06:03:58;103093.03;;;16.42;57.17
59873;BME280;50750;51.636;4.948;2023-05-03T06:06:25;103093.39;;;16.42;57.22
59873;BME280;50750;51.636;4.948;2023-05-03T06:08:52;103098.50;;;16.41;57.20
59873;BME280;50750;51.636;4.948;2023-05-03T06:11:19;103096.39;;;16.41;57.22
59873;BME280;50750;51.636;4.948;2023-05-03T06:13:46;103095.33;;;16.41;57.20
59873;BME280;50750;51.636;4.948;2023-05-03T06:16:13;103093.77;;;16.40;57.13
59873;BME280;50750;51.636;4.948;2023-05-03T06:18:39;103091.30;;;16.40;57.20
59873;BME280;50750;51.636;4.948;2023-05-03T06:21:06;103092.53;;;16.40;57.27
59873;BME280;50750;51.636;4.948;2023-05-03T06:23:32;103093.95;;;16.40;57.32
59873;BME280;50750;51.636;4.948;2023-05-03T06:25:59;103093.08;;;16.39;57.25
59873;BME280;50750;51.636;4.948;2023-05-03T06:28:25;103093.44;;;16.38;57.22
59873;BME280;50750;51.636;4.948;2023-05-03T06:30:52;103089.19;;;16.38;57.31
59873;BME280;50750;51.636;4.948;2023-05-03T06:33:18;103087.27;;;16.38;57.33
59873;BME280;50750;51.636;4.948;2023-05-03T06:35:45;103083.04;;;16.37;57.30
59873;BME280;50750;51.636;4.948;2023-05-03T06:38:14;103081.98;;;16.37;57.36
59873;BME280;50750;51.636;4.948;2023-05-03T06:40:41;103080.58;;;16.37;57.42
59873;BME280;50750;51.636;4.948;2023-05-03T06:43:07;103075.80;;;16.36;57.32
59873;BME280;50750;51.636;4.948;2023-05-03T06:45:34;103076.86;;;16.36;57.45
59873;BME280;50750;51.636;4.948;2023-05-03T06:48:01;103080.23;;;16.35;57.32
59873;BME280;50750;51.636;4.948;2023-05-03T06:50:27;103086.95;;;16.35;57.20
59873;BME280;50750;51.636;4.948;2023-05-03T06:52:54;103088.39;;;16.35;57.30
59873;BME280;50750;51.636;4.948;2023-05-03T06:55:20;103089.26;;;16.35;57.30
59873;BME280;50750;51.636;4.948;2023-05-03T06:57:47;103086.79;;;16.34;57.44
59873;BME280;50750;51.636;4.948;2023-05-03T07:00:14;103086.79;;;16.35;57.35
59873;BME280;50750;51.636;4.948;2023-05-03T07:02:41;103087.70;;;16.34;57.56
59873;BME280;50750;51.636;4.948;2023-05-03T07:05:08;103084.52;;;16.33;57.35
59873;BME280;50750;51.636;4.948;2023-05-03T07:07:35;103085.05;;;16.33;57.45
59873;BME280;50750;51.636;4.948;2023-05-03T07:10:02;103081.86;;;16.33;57.50
59873;BME280;50750;51.636;4.948;2023-05-03T07:12:29;103077.98;;;16.32;57.47
59873;BME280;50750;51.636;4.948;2023-05-03T07:14:57;103079.04;;;16.33;57.50
59873;BME280;50750;51.636;4.948;2023-05-03T07:17:24;103066.67;;;16.32;57.22
59873;BME280;50750;51.636;4.948;2023-05-03T07:19:51;103067.56;;;16.32;57.34
59873;BME280;50750;51.636;4.948;2023-05-03T07:22:18;103066.16;;;16.32;57.56
59873;BME280;50750;51.636;4.948;2023-05-03T07:24:46;103067.73;;;16.32;57.59
59873;BME280;50750;51.636;4.948;2023-05-03T07:27:12;103062.80;;;16.32;57.58
59873;BME280;50750;51.636;4.948;2023-05-03T07:29:40;103062.98;;;16.32;57.56
59873;BME280;50750;51.636;4.948;2023-05-03T07:32:07;103058.20;;;16.32;57.55
59873;BME280;50750;51.636;4.948;2023-05-03T07:34:34;103058.02;;;16.32;57.63
59873;BME280;50750;51.636;4.948;2023-05-03T07:37:00;103050.96;;;16.32;57.68
59873;BME280;50750;51.636;4.948;2023-05-03T07:39:27;103046.02;;;16.32;57.74
59873;BME280;50750;51.636;4.948;2023-05-03T07:41:53;103048.84;;;16.31;57.72
59873;BME280;50750;51.636;4.948;2023-05-03T07:44:20;103044.08;;;16.31;57.74
59873;BME280;50750;51.636;4.948;2023-05-03T07:46:46;103039.66;;;16.31;57.70
59873;BME280;50750;51.636;4.948;2023-05-03T07:49:13;103034.71;;;16.31;57.71
59873;BME280;50750;51.636;4.948;2023-05-03T07:51:39;103032.77;;;16.31;57.67
59873;BME280;50750;51.636;4.948;2023-05-03T07:54:07;103031.17;;;16.31;57.61
59873;BME280;50750;51.636;4.948;2023-05-03T07:56:33;103023.22;;;16.31;57.69
59873;BME280;50750;51.636;4.948;2023-05-03T07:59:00;103023.21;;;16.31;57.63
59873;BME280;50750;51.636;4.948;2023-05-03T08:01:27;103029.94;;;16.31;57.67
59873;BME280;50750;51.636;4.948;2023-05-03T08:03:53;103024.29;;;16.31;57.76
59873;BME280;50750;51.636;4.948;2023-05-03T08:06:20;103018.27;;;16.31;57.72
59873;BME280;50750;51.636;4.948;2023-05-03T08:08:46;103012.61;;;16.31;57.71
59873;BME280;50750;51.636;4.948;2023-05-03T08:11:13;103005.37;;;16.30;57.75
59873;BME280;50750;51.636;4.948;2023-05-03T08:13:40;103004.66;;;16.30;57.82
59873;BME280;50750;51.636;4.948;2023-05-03T08:16:06;102998.65;;;16.30;57.69
59873;BME280;50750;51.636;4.948;2023-05-03T08:18:33;103004.31;;;16.31;57.87
59873;BME280;50750;51.636;4.948;2023-05-03T08:21:00;103003.25;;;16.31;57.86
59873;BME280;50750;51.636;4.948;2023-05-03T08:23:26;103006.78;;;16.31;57.78
59873;BME280;50750;51.636;4.948;2023-05-03T08:25:53;103013.50;;;16.31;57.90
59873;BME280;50750;51.636;4.948;2023-05-03T08:28:20;103020.05;;;16.31;57.90
59873;BME280;50750;51.636;4.948;2023-05-03T08:30:46;103026.05;;;16.31;57.94
59873;BME280;50750;51.636;4.948;2023-05-03T08:33:13;103028.17;;;16.31;57.97
59873;BME280;50750;51.636;4.948;2023-05-03T08:35:39;103028.15;;;16.32;57.77
59873;BME280;50750;51.636;4.948;2023-05-03T08:38:06;103027.08;;;16.32;57.84
59873;BME280;50750;51.636;4.948;2023-05-03T08:40:33;103029.56;;;16.32;57.72
59873;BME280;50750;51.636;4.948;2023-05-03T08:43:09;103030.45;;;16.32;57.78
59873;BME280;50750;51.636;4.948;2023-05-03T08:45:35;103029.38;;;16.32;57.70
59873;BME280;50750;51.636;4.948;2023-05-03T08:48:02;103029.55;;;16.32;57.77
59873;BME280;50750;51.636;4.948;2023-05-03T08:50:30;103025.30;;;16.32;57.63
59873;BME280;50750;51.636;4.948;2023-05-03T08:52:58;103025.46;;;16.33;57.89
59873;BME280;50750;51.636;4.948;2023-05-03T08:55:24;103022.11;;;16.32;57.84
59873;BME280;50750;51.636;4.948;2023-05-03T08:57:51;103018.04;;;16.33;57.98
59873;BME280;50750;51.636;4.948;2023-05-03T09:00:17;103009.55;;;16.33;57.98
59873;BME280;50750;51.636;4.948;2023-05-03T09:02:44;103006.73;;;16.34;57.85
59873;BME280;50750;51.636;4.948;2023-05-03T09:07:59;103011.15;;;16.34;57.88
59873;BME280;50750;51.636;4.948;2023-05-03T09:10:27;103017.31;;;16.34;57.96
59873;BME280;50750;51.636;4.948;2023-05-03T09:13:01;103019.44;;;16.34;57.75
59873;BME280;50750;51.636;4.948;2023-05-03T09:15:29;103018.91;;;16.34;57.93
59873;BME280;50750;51.636;4.948;2023-05-03T09:20:37;103013.21;;;16.35;57.80
59873;BME280;50750;51.636;4.948;2023-05-03T09:23:06;103012.51;;;16.35;57.80
59873;BME280;50750;51.636;4.948;2023-05-03T09:26:02;103011.08;;;16.36;57.83
59873;BME280;50750;51.636;4.948;2023-05-03T09:28:29;103009.84;;;16.36;57.69
59873;BME280;50750;51.636;4.948;2023-05-03T09:31:06;103008.42;;;16.36;57.71
59873;BME280;50750;51.636;4.948;2023-05-03T09:33:32;103007.91;;;16.37;57.85
59873;BME280;50750;51.636;4.948;2023-05-03T09:36:04;103005.06;;;16.37;57.85
59873;BME280;50750;51.636;4.948;2023-05-03T09:38:33;103006.45;;;16.38;57.89
59873;BME280;50750;51.636;4.948;2023-05-03T09:41:00;103010.36;;;16.38;57.87
59873;BME280;50750;51.636;4.948;2023-05-03T09:43:26;103017.25;;;16.38;57.82
59873;BME280;50750;51.636;4.948;2023-05-03T09:46:10;103018.48;;;16.38;57.81
59873;BME280;50750;51.636;4.948;2023-05-03T09:48:38;103020.96;;;16.38;57.18
59873;BME280;50750;51.636;4.948;2023-05-03T09:51:05;103018.50;;;16.37;56.69
59873;BME280;50750;51.636;4.948;2023-05-03T09:53:34;103016.20;;;16.37;56.66
59873;BME280;50750;51.636;4.948;2023-05-03T09:56:02;103015.30;;;16.38;56.44
59873;BME280;50750;51.636;4.948;2023-05-03T09:58:30;103014.77;;;16.38;56.75
59873;BME280;50750;51.636;4.948;2023-05-03T10:01:00;103012.11;;;16.39;56.72
59873;BME280;50750;51.636;4.948;2023-05-03T10:03:33;103014.94;;;16.38;56.77
59873;BME280;50750;51.636;4.948;2023-05-03T10:06:06;103014.39;;;16.39;56.81
59873;BME280;50750;51.636;4.948;2023-05-03T10:08:40;103009.61;;;16.40;56.95
59873;BME280;50750;51.636;4.948;2023-05-03T10:11:08;103000.94;;;16.40;56.75
59873;BME280;50750;51.636;4.948;2023-05-03T10:13:37;103002.17;;;16.40;56.70
59873;BME280;50750;51.636;4.948;2023-05-03T10:16:10;103003.73;;;16.41;56.69
59873;BME280;50750;51.636;4.948;2023-05-03T10:18:47;103003.20;;;16.42;56.79
59873;BME280;50750;51.636;4.948;2023-05-03T10:24:22;103004.25;;;16.42;56.94
59873;BME280;50750;51.636;4.948;2023-05-03T10:26:50;103003.70;;;16.43;56.94
59873;BME280;50750;51.636;4.948;2023-05-03T10:32:28;103003.33;;;16.44;56.80
59873;BME280;50750;51.636;4.948;2023-05-03T10:37:32;103000.48;;;16.45;56.95
59873;BME280;50750;51.636;4.948;2023-05-03T10:40:09;102997.30;;;16.45;56.96
59873;BME280;50750;51.636;4.948;2023-05-03T10:42:37;102994.09;;;16.46;57.05
59873;BME280;50750;51.636;4.948;2023-05-03T10:45:06;102992.66;;;16.46;56.91
59873;BME280;50750;51.636;4.948;2023-05-03T10:47:34;102987.17;;;16.47;57.00
59873;BME280;50750;51.636;4.948;2023-05-03T10:50:23;102986.81;;;16.48;57.00
59873;BME280;50750;51.636;4.948;2023-05-03T10:52:50;102981.84;;;16.48;56.94
59873;BME280;50750;51.636;4.948;2023-05-03T10:55:19;102978.29;;;16.49;57.09
59873;BME280;50750;51.636;4.948;2023-05-03T10:57:47;102983.76;;;16.49;57.08
59873;BME280;50750;51.636;4.948;2023-05-03T11:00:35;102981.27;;;16.49;57.20
59873;BME280;50750;51.636;4.948;2023-05-03T11:03:29;102976.86;;;16.49;57.20
59873;BME280;50750;51.636;4.948;2023-05-03T11:05:57;102973.50;;;16.50;57.14
59873;BME280;50750;51.636;4.948;2023-05-03T11:08:24;102969.77;;;16.50;57.03
59873;BME280;50750;51.636;4.948;2023-05-03T11:10:58;102970.30;;;16.50;57.27
59873;BME280;50750;51.636;4.948;2023-05-03T11:13:26;102962.69;;;16.51;57.18
59873;BME280;50750;51.636;4.948;2023-05-03T11:15:53;102960.18;;;16.52;57.23
59873;BME280;50750;51.636;4.948;2023-05-03T11:18:21;102961.95;;;16.52;57.23
59873;BME280;50750;51.636;4.948;2023-05-03T11:20:48;102958.59;;;16.52;57.12
59873;BME280;50750;51.636;4.948;2023-05-03T11:23:15;102952.73;;;16.53;56.89
59873;BME280;50750;51.636;4.948;2023-05-03T11:25:41;102944.94;;;16.54;57.00
59873;BME280;50750;51.636;4.948;2023-05-03T11:28:08;102945.27;;;16.55;56.75
59873;BME280;50750;51.636;4.948;2023-05-03T11:30:35;102941.38;;;16.55;56.80
59873;BME280;50750;51.636;4.948;2023-05-03T11:33:02;102941.53;;;16.56;56.78
59873;BME280;50750;51.636;4.948;2023-05-03T11:35:29;102937.98;;;16.56;56.88
59873;BME280;50750;51.636;4.948;2023-05-03T11:37:57;102940.10;;;16.56;56.96
59873;BME280;50750;51.636;4.948;2023-05-03T11:40:24;102941.30;;;16.57;57.08
59873;BME280;50750;51.636;4.948;2023-05-03T11:42:57;102933.35;;;16.58;56.90
59873;BME280;50750;51.636;4.948;2023-05-03T11:45:37;102935.46;;;16.59;57.06
59873;BME280;50750;51.636;4.948;2023-05-03T11:48:06;102934.20;;;16.59;57.21
59873;BME280;50750;51.636;4.948;2023-05-03T11:51:06;102923.75;;;16.60;57.00
59873;BME280;50750;51.636;4.948;2023-05-03T11:53:32;102916.14;;;16.60;56.75
59873;BME280;50750;51.636;4.948;2023-05-03T11:55:59;102909.59;;;16.61;56.70
59873;BME280;50750;51.636;4.948;2023-05-03T11:58:26;102908.52;;;16.61;56.64
59873;BME280;50750;51.636;4.948;2023-05-03T12:00:55;102905.48;;;16.62;56.86
59873;BME280;50750;51.636;4.948;2023-05-03T12:03:26;102900.16;;;16.63;57.07
59873;BME280;50750;51.636;4.948;2023-05-03T12:06:01;102899.63;;;16.64;57.07
59873;BME280;50750;51.636;4.948;2023-05-03T12:08:31;102900.68;;;16.64;56.83
59873;BME280;50750;51.636;4.948;2023-05-03T12:11:01;102897.83;;;16.64;56.92
59873;BME280;50750;51.636;4.948;2023-05-03T12:13:32;102897.63;;;16.65;57.12
59873;BME280;50750;51.636;4.948;2023-05-03T12:16:01;102889.31;;;16.66;57.13
59873;BME280;50750;51.636;4.948;2023-05-03T12:18:51;102884.86;;;16.67;57.01
59873;BME280;50750;51.636;4.948;2023-05-03T12:21:22;102882.19;;;16.67;57.04
59873;BME280;50750;51.636;4.948;2023-05-03T12:23:50;102877.56;;;16.68;57.17
59873;BME280;50750;51.636;4.948;2023-05-03T12:26:17;102878.63;;;16.68;56.99
59873;BME280;50750;51.636;4.948;2023-05-03T12:28:46;102872.07;;;16.69;56.94
59873;BME280;50750;51.636;4.948;2023-05-03T12:31:13;102864.82;;;16.69;57.14
59873;BME280;50750;51.636;4.948;2023-05-03T12:33:40;102863.73;;;16.70;57.05
59873;BME280;50750;51.636;4.948;2023-05-03T12:36:07;102859.29;;;16.70;57.15
59873;BME280;50750;51.636;4.948;2023-05-03T12:38:34;102854.50;;;16.71;57.08
59873;BME280;50750;51.636;4.948;2023-05-03T12:41:01;102852.02;;;16.72;57.21
59873;BME280;50750;51.636;4.948;2023-05-03T12:43:28;102856.23;;;16.73;57.13
59873;BME280;50750;51.636;4.948;2023-05-03T12:45:54;102849.33;;;16.73;57.29
59873;BME280;50750;51.636;4.948;2023-05-03T12:48:24;102846.30;;;16.74;57.00
59873;BME280;50750;51.636;4.948;2023-05-03T12:50:51;102840.80;;;16.75;57.15
59873;BME280;50750;51.636;4.948;2023-05-03T12:53:19;102840.08;;;16.75;57.05
59873;BME280;50750;51.636;4.948;2023-05-03T12:55:47;102831.56;;;16.76;57.10
59873;BME280;50750;51.636;4.948;2023-05-03T12:58:14;102836.18;;;16.77;57.04
59873;BME280;50750;51.636;4.948;2023-05-03T13:00:40;102835.12;;;16.77;57.22
59873;BME280;50750;51.636;4.948;2023-05-03T13:03:07;102831.91;;;16.77;57.04
59873;BME280;50750;51.636;4.948;2023-05-03T13:05:34;102829.61;;;16.78;57.17
59873;BME280;50750;51.636;4.948;2023-05-03T13:08:01;102829.93;;;16.78;57.18
59873;BME280;50750;51.636;4.948;2023-05-03T13:10:28;102825.49;;;16.79;56.92
59873;BME280;50750;51.636;4.948;2023-05-03T13:12:55;102824.95;;;16.80;57.04